createdAt,value
2023-05-19T00:01:09.733Z,21.3
2023-05-19T00:07:02.285Z,21.3
2023-05-19T00:12:38.199Z,21.3
2023-05-19T00:18:30.192Z,21.3
2023-05-19T00:24:22.822Z,21.2
2023-05-19T00:30:13.993Z,21.2
2023-05-19T00:36:06.472Z,21.2
2023-05-19T00:52:55.863Z,21.1
2023-05-19T00:58:33.023Z,21.1
2023-05-19T01:04:25.471Z,21.1
2023-05-19T01:10:17.806Z,21
2023-05-19T01:15:53.853Z,21
2023-05-19T01:21:46.096Z,20.9
2023-05-19T01:27:21.778Z,20.9
2023-05-19T01:32:58.897Z,20.9
2023-05-19T01:38:34.445Z,20.8
2023-05-19T01:43:55.365Z,20.8
2023-05-19T01:49:34.281Z,20.8
2023-05-19T01:55:25.099Z,20.7
2023-05-19T02:01:01.346Z,20.6
2023-05-19T02:06:53.312Z,20.6
2023-05-19T02:12:28.956Z,20.6
2023-05-19T02:18:21.361Z,20.5
2023-05-19T02:23:57.695Z,20.6
2023-05-19T02:29:49.073Z,20.5
2023-05-19T02:35:25.985Z,20.4
2023-05-19T02:41:02.444Z,20.4
2023-05-19T02:46:37.974Z,20.4
2023-05-19T02:51:59.569Z,20.4
2023-05-19T02:57:36.498Z,20.3
2023-05-19T03:03:12.859Z,20.3
2023-05-19T03:09:05.527Z,20.2
2023-05-19T03:14:41.850Z,20.2
2023-05-19T03:20:33.656Z,20.2
2023-05-19T03:26:25.234Z,20.1
2023-05-19T03:32:18.360Z,20.1
2023-05-19T03:38:09.592Z,20
2023-05-19T03:44:01.694Z,20
2023-05-19T03:49:53.719Z,19.9
2023-05-19T03:55:29.206Z,19.9
2023-05-19T04:01:21.604Z,19.9
2023-05-19T04:07:13.659Z,19.9
2023-05-19T04:13:04.600Z,19.8
2023-05-19T04:18:56.909Z,19.8
2023-05-19T04:24:48.730Z,19.8
2023-05-19T04:30:39.325Z,19.8
2023-05-19T04:36:16.322Z,19.7
2023-05-19T04:42:11.572Z,19.7
2023-05-19T04:48:03.632Z,19.7
2023-05-19T04:53:57.030Z,19.7
2023-05-19T04:59:32.917Z,19.7
2023-05-19T05:05:25.219Z,19.6
2023-05-19T05:11:16.861Z,19.7
2023-05-19T05:17:08.670Z,19.7
2023-05-19T05:23:00.314Z,19.6
2023-05-19T05:28:36.824Z,19.6
2023-05-19T05:33:59.047Z,19.6
2023-05-19T05:39:50.103Z,19.6
2023-05-19T05:45:28.526Z,19.6
2023-05-19T05:51:20.940Z,19.6
2023-05-19T05:57:08.571Z,19.6
2023-05-19T06:02:44.969Z,19.6
2023-05-19T06:08:22.558Z,19.6
2023-05-19T06:14:14.679Z,19.6
2023-05-19T06:19:36.580Z,19.6
2023-05-19T06:25:29.092Z,19.6
2023-05-19T06:31:06.050Z,19.6
2023-05-19T06:37:01.901Z,19.6
2023-05-19T06:42:39.165Z,19.6
2023-05-19T06:48:17.609Z,19.6
2023-05-19T06:53:54.357Z,19.6
2023-05-19T06:59:39.362Z,19.6
2023-05-19T07:05:32.622Z,19.6
2023-05-19T07:11:12.802Z,19.6
2023-05-19T07:16:34.274Z,19.6
2023-05-19T07:21:54.595Z,19.6
2023-05-19T07:27:15.274Z,19.5
2023-05-19T07:32:54.950Z,19.4
2023-05-19T07:38:31.660Z,19.5
2023-05-19T07:43:37.973Z,19.6
2023-05-19T07:49:15.161Z,19.6
2023-05-19T07:54:38.362Z,19.6
2023-05-19T07:59:59.402Z,19.6
2023-05-19T08:05:37.545Z,19.6
2023-05-19T08:11:12.019Z,19.6
2023-05-19T08:16:49.237Z,19.6
2023-05-19T08:22:26.115Z,19.6
2023-05-19T08:28:01.046Z,19.6
2023-05-19T08:33:37.156Z,19.6
2023-05-19T08:38:58.397Z,19.6
2023-05-19T08:44:19.085Z,19.6
2023-05-19T08:49:58.159Z,19.6
2023-05-19T08:55:49.201Z,19.6
2023-05-19T09:01:27.729Z,19.6
2023-05-19T09:07:22.872Z,19.6
2023-05-19T09:12:59.473Z,19.6
2023-05-19T09:18:38.744Z,19.6
2023-05-19T09:24:15.494Z,19.6
2023-05-19T09:29:52.286Z,19.6
2023-05-19T09:35:28.741Z,19.7
2023-05-19T09:41:04.831Z,19.7
2023-05-19T09:46:57.486Z,19.7
2023-05-19T09:52:18.280Z,19.7
2023-05-19T09:57:58.122Z,19.7
2023-05-19T10:03:51.636Z,19.7
2023-05-19T10:09:28.873Z,19.7
2023-05-19T10:15:04.491Z,19.7
2023-05-19T10:20:42.918Z,19.7
2023-05-19T10:26:34.673Z,19.7
2023-05-19T10:32:28.440Z,19.7
2023-05-19T10:38:05.466Z,19.7
2023-05-19T10:43:42.720Z,19.8
2023-05-19T10:49:34.593Z,19.8
2023-05-19T10:55:27.161Z,19.8
2023-05-19T11:01:05.507Z,19.8
2023-05-19T11:07:04.009Z,19.8
2023-05-19T11:13:09.281Z,19.8
2023-05-19T11:19:01.897Z,19.7
2023-05-19T11:24:57.033Z,19.8
2023-05-19T11:30:50.014Z,19.8
2023-05-19T11:36:43.064Z,19.8
2023-05-19T11:42:35.343Z,19.8
2023-05-19T11:48:46.603Z,19.8
2023-05-19T11:54:40.715Z,19.8
2023-05-19T12:00:47.345Z,19.8
2023-05-19T12:06:46.678Z,19.8
2023-05-19T12:12:39.930Z,19.8
2023-05-19T12:18:33.365Z,19.8
2023-05-19T12:24:18.475Z,19.8
2023-05-19T12:30:10.022Z,19.8
2023-05-19T12:36:03.712Z,19.8
2023-05-19T12:41:56.329Z,19.8
2023-05-19T12:47:48.181Z,19.8
2023-05-19T12:53:43.241Z,19.8
2023-05-19T12:59:51.207Z,19.7
2023-05-19T13:05:46.464Z,19.8
2023-05-19T13:11:39.179Z,19.8
2023-05-19T13:17:31.701Z,19.8
2023-05-19T13:23:37.541Z,19.8
2023-05-19T13:28:58.990Z,19.8
2023-05-19T13:34:36.135Z,19.8
2023-05-19T13:40:28.577Z,19.8
2023-05-19T13:46:24.356Z,19.8
2023-05-19T13:52:23.816Z,19.8
2023-05-19T13:58:17.015Z,19.8
2023-05-19T14:04:08.388Z,19.8
2023-05-19T14:09:46.177Z,19.8
2023-05-19T14:16:06.133Z,19.8
2023-05-19T14:22:00.867Z,19.8
2023-05-19T14:27:53.844Z,19.8
2023-05-19T14:33:35.528Z,19.8
2023-05-19T14:39:27.468Z,19.8
2023-05-19T14:45:04.711Z,19.8
2023-05-19T14:50:45.567Z,19.8
2023-05-19T14:56:22.966Z,19.8
2023-05-19T15:02:10.651Z,19.8
2023-05-19T15:07:53.492Z,19.8
2023-05-19T15:13:45.693Z,19.8
2023-05-19T15:19:56.773Z,19.8
2023-05-19T15:25:47.918Z,19.8
2023-05-19T15:31:24.451Z,19.8
2023-05-19T15:37:01.111Z,19.8
2023-05-19T15:42:52.219Z,19.8
2023-05-19T15:48:44.505Z,19.8
2023-05-19T15:54:36.407Z,19.8
2023-05-19T16:00:12.163Z,19.8
2023-05-19T16:05:51.305Z,19.8
2023-05-19T16:11:43.545Z,19.8
2023-05-19T16:17:35.187Z,19.8
2023-05-19T16:23:13.002Z,19.8
2023-05-19T16:28:48.979Z,19.8
2023-05-19T16:34:25.489Z,19.8
2023-05-19T16:40:02.513Z,19.8
2023-05-19T16:45:39.870Z,19.8
2023-05-19T16:51:17.660Z,19.8
2023-05-19T16:57:09.639Z,19.8
2023-05-19T17:02:47.598Z,19.8
2023-05-19T17:07:55.651Z,19.8
2023-05-19T17:13:33.013Z,19.8
2023-05-19T17:19:09.673Z,19.8
2023-05-19T17:24:46.043Z,19.8
2023-05-19T17:30:37.620Z,19.8
2023-05-19T17:36:17.543Z,19.8
2023-05-19T17:41:53.350Z,19.7
2023-05-19T17:47:44.371Z,19.7
2023-05-19T17:53:05.375Z,19.6
2023-05-19T17:58:10.576Z,19.6
2023-05-19T18:03:47.497Z,19.6
2023-05-19T18:09:25.421Z,19.7
2023-05-19T18:15:03.359Z,19.7
2023-05-19T18:20:40.463Z,19.7
2023-05-19T18:26:16.669Z,19.7
2023-05-19T18:31:52.505Z,19.7
2023-05-19T18:37:13.380Z,19.7
2023-05-19T18:42:33.827Z,19.7
2023-05-19T18:47:38.987Z,19.7
2023-05-19T18:52:44.352Z,19.7
2023-05-19T18:57:50.735Z,19.7
2023-05-19T19:02:55.922Z,19.7
2023-05-19T19:08:00.963Z,19.7
2023-05-19T19:13:39.481Z,19.8
2023-05-19T19:19:15.585Z,19.7
2023-05-19T19:24:51.239Z,19.7
2023-05-19T19:30:28.094Z,19.7
2023-05-19T19:36:06.416Z,19.7
2023-05-19T19:41:42.449Z,19.7
2023-05-19T19:47:19.659Z,19.8
2023-05-19T19:53:10.812Z,19.7
2023-05-19T19:58:30.989Z,19.8
2023-05-19T20:04:42.528Z,19.7
2023-05-19T20:10:02.796Z,19.7
2023-05-19T20:15:39.818Z,19.7
2023-05-19T20:21:18.884Z,19.7
2023-05-19T20:27:15.223Z,19.7
2023-05-19T20:32:53.502Z,19.8
2023-05-19T20:38:16.481Z,19.8
2023-05-19T20:43:51.749Z,19.8
2023-05-19T20:49:28.390Z,19.8
2023-05-19T20:55:04.912Z,19.8
2023-05-19T21:00:40.394Z,19.8
2023-05-19T21:06:32.900Z,19.8
2023-05-19T21:12:09.472Z,19.6
2023-05-19T21:17:45.211Z,19.7
2023-05-19T21:23:21.480Z,19.6
2023-05-19T21:29:13.318Z,19.5
2023-05-19T21:35:04.534Z,19.6
2023-05-19T21:40:51.893Z,19.6
2023-05-19T21:46:46.045Z,19.6
2023-05-19T21:52:22.068Z,19.6
2023-05-19T21:58:13.303Z,19.6
2023-05-19T22:04:06.140Z,19.6
2023-05-19T22:09:57.328Z,19.6
2023-05-19T22:15:47.717Z,19.6
2023-05-19T22:21:24.833Z,19.6
2023-05-19T22:27:28.862Z,19.6
2023-05-19T22:33:23.276Z,19.6
2023-05-19T22:39:16.378Z,19.6
2023-05-19T22:45:08.337Z,19.6
2023-05-19T22:51:02.824Z,19.6
2023-05-19T22:56:55.540Z,19.6
2023-05-19T23:02:46.346Z,19.6
2023-05-19T23:08:37.056Z,19.6
2023-05-19T23:14:29.217Z,19.6
2023-05-19T23:20:21.581Z,19.6
2023-05-19T23:26:13.732Z,19.6
2023-05-19T23:32:07.768Z,19.6
2023-05-19T23:37:58.961Z,19.6
2023-05-19T23:43:49.840Z,19.6
2023-05-19T23:49:41.819Z,19.6
2023-05-19T23:55:33.575Z,19.6
